Time;durP1;ratioP1;P1;durP2;ratioP2;P2;SDS_P1;SDS_P2;PMS_P1;PMS_P2;Temp;Humidity;BMP_temperature;BMP_pressure;BME280_temperature;BME280_humidity;BME280_pressure;Samples;Min_cycle;Max_cycle;Signal;HPM_P1;HPM_P2
2022/08/14 00:02:08;;;;;;;7.90;6.25;;;21.90;99.90;;;;;;5009142;28;20203;-73
2022/08/14 00:04:36;;;;;;;6.82;6.13;;;21.80;99.90;;;;;;5006806;28;20215;-74
2022/08/14 00:07:06;;;;;;;10.05;6.53;;;21.90;99.90;;;;;;5009419;28;20203;-73
2022/08/14 00:09:33;;;;;;;7.50;6.72;;;21.80;99.90;;;;;;5009744;28;20222;-76
2022/08/14 00:12:00;;;;;;;6.72;6.13;;;21.80;99.90;;;;;;5005763;28;20584;-76
2022/08/14 00:14:28;;;;;;;7.97;6.63;;;21.90;99.90;;;;;;5011249;28;20215;-75
2022/08/14 00:16:55;;;;;;;7.35;6.50;;;21.80;99.90;;;;;;5011458;28;20214;-76
2022/08/14 00:19:22;;;;;;;7.53;6.50;;;21.80;99.90;;;;;;5010022;28;20238;-75
2022/08/14 00:21:52;;;;;;;7.78;6.97;;;21.90;99.90;;;;;;5010625;28;20672;-75
2022/08/14 00:24:19;;;;;;;7.00;6.32;;;21.90;99.90;;;;;;5013340;28;20207;-74
2022/08/14 00:26:46;;;;;;;8.02;7.22;;;21.80;99.90;;;;;;5012898;28;20210;-73
2022/08/14 00:29:12;;;;;;;8.18;7.05;;;21.80;99.90;;;;;;5011599;28;20222;-74
2022/08/14 00:31:39;;;;;;;7.93;6.75;;;21.80;99.90;;;;;;5014842;28;20215;-74
2022/08/14 00:34:06;;;;;;;6.88;6.28;;;21.80;99.90;;;;;;5012150;28;20211;-74
2022/08/14 00:36:33;;;;;;;9.00;6.88;;;21.80;99.90;;;;;;5009982;28;20551;-75
2022/08/14 00:39:01;;;;;;;7.22;6.53;;;21.80;99.90;;;;;;5013200;28;20223;-75
2022/08/14 00:41:31;;;;;;;7.80;6.80;;;21.80;99.90;;;;;;5014831;28;20234;-74
2022/08/14 00:43:58;;;;;;;8.65;6.78;;;21.80;99.90;;;;;;5012900;28;20211;-75
2022/08/14 00:46:25;;;;;;;6.30;5.70;;;21.80;99.90;;;;;;5012600;28;20591;-76
2022/08/14 00:48:52;;;;;;;9.90;6.53;;;21.80;99.90;;;;;;5013933;28;20203;-75
2022/08/14 00:51:20;;;;;;;7.68;5.53;;;21.80;99.90;;;;;;5013828;28;20911;-73
2022/08/14 00:53:49;;;;;;;6.53;5.93;;;21.80;99.90;;;;;;5013650;28;20218;-74
2022/08/14 00:56:17;;;;;;;7.25;6.18;;;21.80;99.90;;;;;;5012811;28;20239;-74
2022/08/14 00:58:45;;;;;;;8.23;6.03;;;21.80;99.90;;;;;;5012667;28;20326;-75
2022/08/14 01:01:15;;;;;;;10.77;5.90;;;21.70;99.90;;;;;;5012883;28;20298;-74
2022/08/14 01:03:42;;;;;;;6.50;5.90;;;21.70;99.90;;;;;;5012115;28;20684;-74
2022/08/14 01:06:15;;;;;;;7.68;5.80;;;21.70;99.90;;;;;;5012729;28;20203;-74
2022/08/14 01:08:44;;;;;;;7.00;5.45;;;21.70;99.90;;;;;;5005258;28;20657;-74
2022/08/14 01:11:14;;;;;;;6.82;5.82;;;21.70;99.90;;;;;;5006585;28;20211;-73
2022/08/14 01:13:45;;;;;;;9.02;6.00;;;21.70;99.90;;;;;;5001141;28;20626;-73
2022/08/14 01:16:16;;;;;;;6.90;5.50;;;21.70;99.90;;;;;;5005958;28;20269;-74
2022/08/14 01:21:41;;;;;;;7.53;5.53;;;21.70;99.90;;;;;;5007473;28;20281;-73
2022/08/14 01:24:09;;;;;;;6.10;5.50;;;21.70;99.90;;;;;;5003436;28;20645;-73
2022/08/14 01:26:36;;;;;;;6.57;5.20;;;21.60;99.90;;;;;;5004341;28;20292;-73
2022/08/14 01:29:06;;;;;;;6.05;5.45;;;21.70;99.90;;;;;;4999680;28;20231;-74
2022/08/14 01:31:35;;;;;;;7.43;5.47;;;21.60;99.90;;;;;;4999841;28;20694;-74
2022/08/14 01:34:04;;;;;;;7.78;5.13;;;21.60;99.90;;;;;;4997851;28;20207;-73
2022/08/14 01:36:35;;;;;;;6.90;5.10;;;21.60;99.90;;;;;;5007169;28;20552;-73
2022/08/14 01:39:07;;;;;;;6.82;5.55;;;21.60;99.90;;;;;;5003704;28;20207;-73
2022/08/14 01:41:36;;;;;;;5.82;5.22;;;21.60;99.90;;;;;;5008672;28;20208;-73
2022/08/14 01:44:06;;;;;;;7.72;5.95;;;21.50;99.90;;;;;;5001102;28;20590;-74
2022/08/14 01:46:34;;;;;;;6.75;5.47;;;21.50;99.90;;;;;;5011661;28;20579;-73
2022/08/14 01:49:02;;;;;;;6.65;5.15;;;21.50;99.90;;;;;;5012349;28;20207;-73
2022/08/14 01:51:30;;;;;;;8.27;5.55;;;21.40;99.90;;;;;;5011868;28;20257;-73
2022/08/14 01:53:59;;;;;;;6.82;5.68;;;21.50;99.90;;;;;;5006924;28;20203;-74
2022/08/14 01:56:35;;;;;;;5.55;4.93;;;21.40;99.90;;;;;;4997822;28;20238;-73
2022/08/14 01:59:03;;;;;;;7.28;4.85;;;21.40;99.90;;;;;;5005019;28;20309;-75
2022/08/14 02:01:30;;;;;;;8.73;5.72;;;21.30;99.90;;;;;;5011387;28;20222;-74
2022/08/14 02:03:57;;;;;;;5.47;4.97;;;21.30;99.90;;;;;;5012563;28;20211;-74
2022/08/14 02:06:25;;;;;;;5.75;5.22;;;21.30;99.90;;;;;;5010823;28;20273;-74
2022/08/14 02:08:53;;;;;;;6.95;5.20;;;21.30;99.90;;;;;;5011284;28;20199;-73
2022/08/14 02:11:22;;;;;;;7.05;5.20;;;21.40;99.90;;;;;;5012120;28;20656;-74
2022/08/14 02:13:55;;;;;;;6.13;4.93;;;21.30;99.90;;;;;;5007986;28;20211;-73
2022/08/14 02:16:25;;;;;;;6.18;5.55;;;21.30;99.90;;;;;;5011946;28;20211;-75
2022/08/14 02:18:53;;;;;;;5.80;5.30;;;21.30;99.90;;;;;;5011279;28;20284;-74
2022/08/14 02:21:20;;;;;;;6.43;5.43;;;21.30;99.90;;;;;;5010571;28;20275;-74
2022/08/14 02:23:48;;;;;;;6.55;5.40;;;21.20;99.90;;;;;;5010882;28;20231;-75
2022/08/14 02:26:17;;;;;;;6.80;5.72;;;21.30;99.90;;;;;;5011066;28;20207;-74
2022/08/14 02:28:45;;;;;;;6.20;5.28;;;21.20;99.90;;;;;;5005680;28;20199;-73
2022/08/14 02:31:14;;;;;;;7.40;5.40;;;21.30;99.90;;;;;;5009896;28;20203;-74
2022/08/14 02:33:41;;;;;;;5.90;5.18;;;21.30;99.90;;;;;;5011326;28;20892;-74
2022/08/14 02:36:09;;;;;;;7.43;5.15;;;21.30;99.90;;;;;;5009231;28;20226;-73
2022/08/14 02:38:37;;;;;;;5.70;4.95;;;21.20;99.90;;;;;;5006007;28;20214;-73
2022/08/14 02:41:07;;;;;;;7.60;5.20;;;21.20;99.90;;;;;;5011540;28;20277;-73
2022/08/14 02:43:35;;;;;;;6.63;4.65;;;21.30;99.90;;;;;;5011020;28;20207;-73
2022/08/14 02:46:02;;;;;;;5.40;4.90;;;21.30;99.90;;;;;;5011634;28;20653;-73
2022/08/14 02:48:35;;;;;;;7.88;5.18;;;21.20;99.90;;;;;;5009600;28;20302;-74
2022/08/14 02:51:05;;;;;;;7.75;5.63;;;21.20;99.90;;;;;;5004870;28;20210;-74
2022/08/14 02:53:33;;;;;;;9.57;5.00;;;21.20;99.90;;;;;;5010157;28;20615;-73
2022/08/14 02:56:01;;;;;;;5.85;5.13;;;21.20;99.90;;;;;;5010287;28;20590;-73
2022/08/14 02:58:30;;;;;;;8.23;5.57;;;21.20;99.90;;;;;;5009595;28;20222;-72
2022/08/14 03:00:57;;;;;;;5.93;5.30;;;21.20;99.90;;;;;;5011038;28;20695;-74
2022/08/14 03:03:23;;;;;;;5.90;5.30;;;21.10;99.90;;;;;;5009661;28;20211;-74
2022/08/14 03:05:53;;;;;;;6.72;5.70;;;21.10;99.90;;;;;;5009696;28;20675;-73
2022/08/14 03:08:20;;;;;;;5.38;4.82;;;21.10;99.90;;;;;;5008702;28;20215;-72
2022/08/14 03:10:48;;;;;;;6.50;5.20;;;21.10;99.90;;;;;;5010300;28;20203;-72
2022/08/14 03:13:14;;;;;;;6.95;5.28;;;21.10;99.90;;;;;;5009153;28;20203;-72
2022/08/14 03:15:45;;;;;;;5.75;5.22;;;21.00;99.90;;;;;;5010636;28;20233;-72
2022/08/14 03:18:12;;;;;;;6.07;5.28;;;21.00;99.90;;;;;;5009473;28;20670;-73
2022/08/14 03:20:39;;;;;;;7.35;5.43;;;21.00;99.90;;;;;;5009872;28;20231;-75
2022/08/14 03:23:08;;;;;;;5.65;5.05;;;20.90;99.90;;;;;;5009868;28;20226;-75
2022/08/14 03:25:35;;;;;;;6.45;5.65;;;20.90;99.90;;;;;;5010592;28;20207;-73
2022/08/14 03:28:05;;;;;;;5.93;5.32;;;20.90;99.90;;;;;;5009070;28;20219;-73
2022/08/14 03:30:34;;;;;;;6.63;5.55;;;20.90;99.90;;;;;;5009385;28;20696;-73
2022/08/14 03:33:01;;;;;;;7.85;5.38;;;20.90;99.90;;;;;;5009901;28;20298;-75
2022/08/14 03:35:29;;;;;;;5.22;4.72;;;20.90;99.90;;;;;;5008388;28;20682;-75
2022/08/14 03:38:03;;;;;;;5.68;4.68;;;20.80;99.90;;;;;;5010550;28;20707;-74
2022/08/14 03:40:31;;;;;;;7.47;5.28;;;20.80;99.90;;;;;;5009275;28;20214;-73
2022/08/14 03:42:58;;;;;;;5.90;5.10;;;20.80;99.90;;;;;;5010389;28;20211;-74
2022/08/14 03:45:25;;;;;;;6.65;5.32;;;20.80;99.90;;;;;;5010453;28;20544;-73
2022/08/14 03:47:52;;;;;;;5.60;4.97;;;20.80;99.90;;;;;;5010423;28;20211;-74
2022/08/14 03:50:18;;;;;;;5.43;4.75;;;20.80;99.90;;;;;;5008017;28;20203;-73
2022/08/14 03:52:45;;;;;;;5.93;5.32;;;20.80;99.90;;;;;;5010330;28;20203;-73
2022/08/14 03:55:12;;;;;;;6.60;4.80;;;20.80;99.90;;;;;;5009084;28;20203;-73
2022/08/14 03:57:41;;;;;;;8.02;5.70;;;20.70;99.90;;;;;;5008976;28;20417;-73
2022/08/14 04:00:12;;;;;;;8.27;4.70;;;20.80;99.90;;;;;;5013058;28;20223;-73
2022/08/14 04:02:39;;;;;;;6.97;5.22;;;20.80;99.90;;;;;;5013664;28;20568;-74
2022/08/14 04:05:07;;;;;;;5.70;5.15;;;20.80;99.90;;;;;;5012927;28;20203;-75
2022/08/14 04:07:34;;;;;;;5.53;5.03;;;20.80;99.90;;;;;;5014358;28;20218;-74
2022/08/14 04:10:01;;;;;;;7.07;5.18;;;20.80;99.90;;;;;;5012797;28;20275;-74
2022/08/14 04:12:28;;;;;;;7.20;5.07;;;20.80;99.90;;;;;;5012170;28;20238;-75
2022/08/14 04:14:57;;;;;;;6.45;5.72;;;20.90;99.90;;;;;;5014960;28;20222;-75
2022/08/14 04:17:25;;;;;;;6.22;4.88;;;20.90;99.90;;;;;;5013623;28;20230;-73
2022/08/14 04:19:52;;;;;;;5.97;5.45;;;20.90;99.90;;;;;;5013824;28;20672;-73
2022/08/14 04:22:19;;;;;;;5.78;5.00;;;20.90;99.90;;;;;;5012370;28;20955;-74
2022/08/14 04:24:46;;;;;;;5.60;5.10;;;20.90;99.90;;;;;;5014073;28;20195;-74
2022/08/14 04:27:13;;;;;;;6.50;5.57;;;20.90;99.90;;;;;;5012114;28;20606;-74
2022/08/14 04:29:41;;;;;;;6.40;5.63;;;21.00;99.90;;;;;;5012375;28;20211;-73
2022/08/14 04:32:10;;;;;;;7.97;4.75;;;21.00;99.90;;;;;;5007462;28;20215;-73
2022/08/14 04:34:40;;;;;;;5.93;5.22;;;21.00;99.90;;;;;;5014146;28;20218;-73
2022/08/14 04:45:22;;;;;;;6.55;5.65;;;21.00;99.90;;;;;;5013147;28;20198;-73
2022/08/14 04:50:35;;;;;;;8.15;6.20;;;21.00;99.90;;;;;;5010093;28;20222;-74
2022/08/14 04:53:02;;;;;;;9.60;6.05;;;21.00;99.90;;;;;;5012580;28;20203;-73
2022/08/14 04:55:28;;;;;;;7.47;6.28;;;21.00;99.90;;;;;;5013260;28;20211;-73
2022/08/14 04:57:55;;;;;;;7.47;6.10;;;21.00;99.90;;;;;;5013203;28;20243;-73
2022/08/14 05:00:22;;;;;;;7.53;5.72;;;21.10;99.90;;;;;;5008992;28;21413;-73
2022/08/14 05:02:50;;;;;;;9.63;6.20;;;21.10;99.90;;;;;;5011897;28;20211;-73
2022/08/14 05:05:19;;;;;;;10.27;6.50;;;21.10;99.90;;;;;;5013007;28;20215;-73
2022/08/14 05:07:46;;;;;;;9.52;6.68;;;21.20;99.90;;;;;;5013261;28;20581;-73
2022/08/14 05:10:13;;;;;;;8.90;6.30;;;21.10;99.90;;;;;;5010669;28;20582;-73
2022/08/14 05:12:40;;;;;;;8.30;6.43;;;21.20;99.90;;;;;;5012157;28;20541;-73
2022/08/14 05:15:09;;;;;;;7.38;6.47;;;21.20;99.90;;;;;;5012994;28;20214;-73
2022/08/14 05:17:41;;;;;;;7.60;6.90;;;21.20;99.90;;;;;;5012012;28;20215;-73
2022/08/14 05:20:11;;;;;;;8.48;6.65;;;21.30;99.90;;;;;;5012884;28;20211;-74
2022/08/14 05:22:37;;;;;;;7.65;6.43;;;21.30;99.90;;;;;;5013014;28;20731;-74
2022/08/14 05:25:05;;;;;;;10.20;6.75;;;21.40;99.90;;;;;;5012201;28;20207;-74
2022/08/14 05:27:32;;;;;;;8.00;6.10;;;21.40;99.90;;;;;;5012591;28;20466;-74
2022/08/14 05:29:59;;;;;;;6.90;6.22;;;21.40;99.90;;;;;;5011559;28;20200;-74
2022/08/14 05:32:26;;;;;;;7.43;6.72;;;21.50;99.90;;;;;;5012904;28;20207;-73
2022/08/14 05:34:56;;;;;;;7.13;6.43;;;21.50;99.90;;;;;;5006771;28;20253;-73
2022/08/14 05:37:25;;;;;;;10.20;6.80;;;21.50;99.90;;;;;;5011546;28;20588;-73
2022/08/14 05:39:52;;;;;;;7.57;6.78;;;21.60;99.90;;;;;;5013105;28;20310;-74
2022/08/14 05:42:20;;;;;;;9.35;6.65;;;21.60;99.90;;;;;;5011786;28;20929;-75
2022/08/14 05:44:47;;;;;;;7.60;6.40;;;21.60;99.90;;;;;;5011358;28;20277;-74
2022/08/14 05:47:14;;;;;;;9.00;7.55;;;21.60;99.90;;;;;;5011898;28;20208;-75
2022/08/14 05:49:41;;;;;;;9.35;8.02;;;21.60;99.90;;;;;;5012316;28;20793;-74
2022/08/14 05:52:07;;;;;;;8.50;7.70;;;21.60;99.90;;;;;;5009036;28;20237;-74
2022/08/14 05:54:35;;;;;;;9.25;7.82;;;21.70;99.90;;;;;;5010245;28;20656;-73
2022/08/14 05:57:03;;;;;;;8.32;7.47;;;21.70;99.90;;;;;;5010071;28;20242;-73
2022/08/14 05:59:29;;;;;;;8.00;7.20;;;21.80;99.90;;;;;;5012102;28;20298;-73
2022/08/14 06:01:56;;;;;;;10.02;7.38;;;21.80;99.90;;;;;;5011001;28;20230;-74
2022/08/14 06:04:23;;;;;;;9.13;8.18;;;21.80;99.90;;;;;;5011073;28;20218;-73
2022/08/14 06:06:50;;;;;;;13.00;7.88;;;21.80;99.90;;;;;;5009714;28;20207;-73
2022/08/14 06:09:16;;;;;;;10.75;8.15;;;21.70;99.90;;;;;;5011006;28;20207;-72
2022/08/14 06:11:44;;;;;;;10.40;7.68;;;21.70;99.90;;;;;;5006994;28;20210;-72
2022/08/14 06:14:11;;;;;;;8.70;7.40;;;21.70;99.90;;;;;;5012164;28;20213;-73
2022/08/14 06:16:38;;;;;;;9.73;7.93;;;21.70;99.90;;;;;;5009601;28;20211;-73
2022/08/14 06:19:05;;;;;;;8.20;7.35;;;21.70;99.90;;;;;;5009823;28;20235;-72
2022/08/14 06:21:32;;;;;;;9.05;7.95;;;21.70;99.90;;;;;;5007997;28;20254;-72
2022/08/14 06:23:58;;;;;;;8.85;7.95;;;21.80;99.90;;;;;;5008920;28;20525;-74
2022/08/14 06:26:25;;;;;;;8.60;7.80;;;21.70;99.90;;;;;;5007644;28;20545;-74
2022/08/14 06:28:53;;;;;;;11.13;7.85;;;21.90;99.90;;;;;;5010836;28;20203;-76
2022/08/14 06:31:20;;;;;;;8.60;7.72;;;22.00;99.90;;;;;;5011161;28;20211;-76
2022/08/14 06:33:47;;;;;;;14.32;8.00;;;22.10;99.90;;;;;;5011323;28;20233;-75
2022/08/14 06:36:17;;;;;;;8.80;7.38;;;22.20;99.90;;;;;;5009292;28;20203;-76
2022/08/14 06:38:44;;;;;;;9.40;8.50;;;22.30;99.90;;;;;;5011581;28;20212;-76
2022/08/14 06:41:11;;;;;;;10.95;8.25;;;22.40;99.90;;;;;;5020778;28;20227;-75
2022/08/14 06:43:38;;;;;;;19.60;8.68;;;22.50;99.90;;;;;;5015547;28;20247;-74
2022/08/14 06:46:07;;;;;;;13.82;8.88;;;22.60;99.90;;;;;;5009536;28;20200;-75
2022/08/14 06:48:34;;;;;;;11.23;9.48;;;22.70;99.90;;;;;;5011670;28;20208;-72
2022/08/14 06:51:01;;;;;;;11.63;9.88;;;22.80;99.90;;;;;;5010907;28;20207;-70
2022/08/14 06:53:27;;;;;;;10.38;9.10;;;22.90;99.90;;;;;;5010201;28;20215;-71
2022/08/14 06:55:55;;;;;;;11.13;9.93;;;23.00;99.90;;;;;;5007136;28;20727;-71
2022/08/14 06:58:22;;;;;;;12.90;10.07;;;23.00;99.90;;;;;;5000075;28;20320;-71
2022/08/14 07:06:19;;;;;;;11.70;9.75;;;23.30;99.90;;;;;;5005897;28;20210;-70
2022/08/14 07:08:46;;;;;;;9.75;8.75;;;23.30;99.90;;;;;;5009031;28;20222;-70
2022/08/14 07:11:13;;;;;;;10.75;8.93;;;23.40;99.90;;;;;;5007790;28;20211;-70
2022/08/14 07:13:40;;;;;;;10.55;9.23;;;23.60;99.90;;;;;;5004418;28;20640;-72
2022/08/14 07:16:11;;;;;;;10.10;8.60;;;23.80;99.90;;;;;;5007978;28;20203;-72
2022/08/14 07:18:40;;;;;;;10.02;9.07;;;23.90;99.90;;;;;;5007180;28;20662;-71
2022/08/14 07:21:08;;;;;;;9.60;8.25;;;24.00;99.90;;;;;;5010344;28;20696;-71
2022/08/14 07:23:35;;;;;;;21.80;11.18;;;24.20;99.90;;;;;;5001334;28;20219;-71
2022/08/14 07:26:04;;;;;;;10.93;9.35;;;24.30;99.90;;;;;;5005596;28;20222;-74
2022/08/14 07:28:33;;;;;;;9.55;8.55;;;24.40;99.90;;;;;;5005370;28;20239;-72
2022/08/14 07:31:01;;;;;;;11.38;8.27;;;24.50;99.90;;;;;;5007333;28;20241;-71
2022/08/14 07:33:32;;;;;;;10.75;8.55;;;24.60;99.90;;;;;;5008272;28;20553;-68
2022/08/14 07:36:03;;;;;;;12.00;9.23;;;24.60;99.90;;;;;;5007825;28;20649;-75
2022/08/14 07:38:31;;;;;;;10.30;8.95;;;24.70;99.90;;;;;;5006239;28;20204;-71
2022/08/14 07:40:58;;;;;;;12.63;9.00;;;24.80;99.90;;;;;;5001100;28;20228;-68
2022/08/14 07:43:25;;;;;;;9.07;8.15;;;25.00;99.90;;;;;;5008645;28;20983;-66
2022/08/14 07:45:52;;;;;;;11.20;9.30;;;25.10;99.90;;;;;;4999253;28;20217;-71
2022/08/14 07:48:19;;;;;;;9.73;8.20;;;25.30;99.90;;;;;;4998151;28;20210;-69
2022/08/14 07:50:49;;;;;;;9.88;8.88;;;25.50;99.90;;;;;;5007933;28;20206;-70
2022/08/14 07:53:18;;;;;;;9.70;8.60;;;25.60;99.90;;;;;;5009589;28;20712;-70
2022/08/14 07:55:45;;;;;;;9.63;8.73;;;25.60;99.90;;;;;;5008861;28;20584;-69
2022/08/14 07:58:12;;;;;;;11.85;8.52;;;25.60;99.90;;;;;;5006431;28;20732;-67
2022/08/14 08:00:39;;;;;;;11.15;9.20;;;25.60;99.90;;;;;;5009737;28;20238;-72
2022/08/14 08:03:08;;;;;;;10.05;9.02;;;25.80;99.90;;;;;;5006668;28;20203;-72
2022/08/14 08:05:36;;;;;;;9.65;8.63;;;26.00;99.90;;;;;;5007676;28;20273;-72
2022/08/14 08:08:04;;;;;;;13.07;9.40;;;26.10;99.90;;;;;;5002594;28;20211;-73
2022/08/14 08:10:33;;;;;;;8.52;7.78;;;26.10;99.90;;;;;;5009247;28;20219;-71
2022/08/14 08:13:02;;;;;;;9.52;8.52;;;26.10;99.90;;;;;;5007235;28;20739;-72
2022/08/14 08:15:31;;;;;;;9.93;8.25;;;26.10;99.90;;;;;;5007085;28;20218;-73
2022/08/14 08:17:58;;;;;;;9.75;8.52;;;26.10;99.90;;;;;;5007779;28;20287;-73
2022/08/14 08:20:27;;;;;;;11.27;9.02;;;26.10;99.90;;;;;;5008911;28;20576;-73
2022/08/14 08:22:55;;;;;;;11.27;8.13;;;26.20;99.90;;;;;;5009160;28;20230;-70
2022/08/14 08:25:22;;;;;;;12.05;8.32;;;26.30;99.90;;;;;;5007260;28;20212;-70
2022/08/14 08:28:01;;;;;;;10.00;8.43;;;26.40;99.90;;;;;;5009784;28;20215;-72
2022/08/14 08:30:30;;;;;;;11.45;9.50;;;26.30;99.90;;;;;;5009050;28;20218;-71
2022/08/14 08:33:00;;;;;;;10.65;9.25;;;26.20;99.90;;;;;;5007168;28;20216;-72
2022/08/14 08:35:29;;;;;;;12.20;9.68;;;26.30;99.90;;;;;;5006244;28;20763;-73
2022/08/14 08:38:02;;;;;;;11.52;9.05;;;26.20;99.90;;;;;;5011014;28;20215;-73
2022/08/14 08:40:34;;;;;;;12.27;8.85;;;26.10;99.90;;;;;;5017190;28;20211;-72
2022/08/14 08:43:03;;;;;;;10.55;9.45;;;26.00;99.90;;;;;;5007052;28;20214;-71
2022/08/14 08:45:30;;;;;;;10.85;9.20;;;25.90;99.90;;;;;;5008311;28;20211;-71
2022/08/14 08:47:57;;;;;;;11.52;9.70;;;25.90;99.90;;;;;;5012422;28;20215;-71
2022/08/14 08:50:28;;;;;;;9.85;8.95;;;26.00;99.90;;;;;;5008532;28;20762;-72
2022/08/14 08:52:57;;;;;;;11.77;8.57;;;26.10;99.90;;;;;;5011509;28;20286;-73
2022/08/14 08:55:25;;;;;;;11.02;9.20;;;26.10;99.90;;;;;;5005059;28;20249;-73
2022/08/14 08:58:00;;;;;;;10.02;9.05;;;26.20;99.90;;;;;;5012934;28;20235;-71
2022/08/14 09:00:31;;;;;;;10.25;8.75;;;26.20;99.90;;;;;;5008405;28;20222;-71
2022/08/14 09:03:00;;;;;;;11.27;9.07;;;26.20;99.90;;;;;;5008211;28;20199;-70
2022/08/14 09:05:27;;;;;;;10.15;9.15;;;26.20;99.90;;;;;;5011882;28;20630;-73
2022/08/14 09:07:54;;;;;;;15.73;9.20;;;26.40;99.90;;;;;;5011233;28;20210;-72
2022/08/14 09:10:21;;;;;;;10.98;8.80;;;26.60;99.90;;;;;;5009324;28;20218;-73
2022/08/14 09:12:48;;;;;;;11.02;9.25;;;26.70;99.90;;;;;;5011321;28;20285;-72
2022/08/14 09:15:15;;;;;;;12.75;9.18;;;26.70;99.90;;;;;;5005116;28;20211;-72
2022/08/14 09:17:44;;;;;;;10.68;9.05;;;26.60;99.90;;;;;;5004199;28;20211;-71
2022/08/14 09:20:12;;;;;;;10.88;9.75;;;26.60;99.90;;;;;;5008053;28;20207;-71
2022/08/14 09:22:40;;;;;;;11.25;9.27;;;26.60;99.90;;;;;;5008638;28;20650;-72
2022/08/14 09:25:08;;;;;;;10.70;9.60;;;26.60;99.90;;;;;;5008268;28;20210;-70
2022/08/14 09:27:36;;;;;;;10.93;9.57;;;26.70;99.90;;;;;;5006883;28;20199;-71
2022/08/14 09:30:06;;;;;;;11.88;9.60;;;26.90;99.90;;;;;;5010764;28;20213;-71
2022/08/14 09:32:42;;;;;;;12.93;8.85;;;27.00;99.90;;;;;;5004978;28;20211;-72
2022/08/14 09:35:17;;;;;;;9.95;8.90;;;27.00;99.90;;;;;;5004475;28;20222;-72
2022/08/14 09:37:58;;;;;;;11.10;9.25;;;26.80;99.90;;;;;;5008459;28;20603;-70
2022/08/14 09:40:35;;;;;;;12.93;8.68;;;26.70;99.90;;;;;;5001753;28;20211;-72
2022/08/14 09:43:11;;;;;;;11.55;9.93;;;26.60;99.90;;;;;;5006740;28;20702;-71
2022/08/14 09:45:45;;;;;;;11.63;9.82;;;26.50;99.90;;;;;;5008794;28;20207;-70
2022/08/14 09:48:17;;;;;;;11.05;9.00;;;26.40;99.90;;;;;;5009424;28;20199;-71
2022/08/14 09:50:49;;;;;;;11.18;9.98;;;26.30;99.90;;;;;;5006287;28;20242;-71
2022/08/14 09:53:33;;;;;;;10.80;9.80;;;26.40;99.90;;;;;;5009154;28;20214;-71
2022/08/14 09:56:00;;;;;;;10.57;9.48;;;26.60;99.90;;;;;;5008150;28;20580;-72
2022/08/14 09:58:37;;;;;;;11.50;9.13;;;26.80;99.90;;;;;;5004934;28;20302;-72
2022/08/14 10:01:11;;;;;;;11.60;9.80;;;26.90;99.90;;;;;;5009617;28;20678;-72
2022/08/14 10:03:47;;;;;;;13.63;9.93;;;26.80;99.90;;;;;;5009558;28;20278;-71
2022/08/14 10:06:18;;;;;;;9.80;8.68;;;26.80;99.90;;;;;;5006761;28;20211;-71
2022/08/14 10:08:49;;;;;;;13.65;9.82;;;26.80;99.90;;;;;;5007883;28;20347;-72
2022/08/14 10:11:18;;;;;;;11.73;10.50;;;26.80;99.90;;;;;;5007393;28;20254;-74
2022/08/14 10:13:47;;;;;;;11.10;9.90;;;27.10;99.90;;;;;;5011444;28;20210;-71
2022/08/14 10:16:14;;;;;;;12.73;9.70;;;27.20;99.90;;;;;;5007864;28;20735;-71
2022/08/14 10:18:41;;;;;;;10.50;9.25;;;27.20;99.90;;;;;;5007504;28;20219;-73
2022/08/14 10:21:16;;;;;;;11.13;9.43;;;27.30;99.90;;;;;;5012009;28;20290;-73
2022/08/14 10:23:48;;;;;;;10.00;9.07;;;27.60;99.90;;;;;;5009243;28;20203;-73
2022/08/14 10:26:17;;;;;;;14.05;10.13;;;27.80;99.90;;;;;;5012143;28;20841;-73
2022/08/14 10:28:46;;;;;;;12.68;9.32;;;27.80;99.90;;;;;;5011100;28;20231;-72
2022/08/14 10:31:21;;;;;;;10.45;9.25;;;28.00;99.90;;;;;;5012809;28;20221;-74
2022/08/14 10:34:03;;;;;;;10.48;9.07;;;28.10;99.90;;;;;;5011420;28;20214;-72
2022/08/14 10:36:32;;;;;;;10.65;9.55;;;28.30;99.90;;;;;;5010410;28;20222;-73
2022/08/14 10:39:04;;;;;;;10.43;9.32;;;28.60;99.90;;;;;;5012196;28;20215;-73
2022/08/14 10:41:38;;;;;;;11.57;9.68;;;28.90;99.90;;;;;;5011209;28;20218;-73
2022/08/14 10:44:08;;;;;;;9.93;8.95;;;29.10;99.90;;;;;;5012571;28;20222;-72
2022/08/14 10:46:41;;;;;;;11.52;8.88;;;29.30;99.90;;;;;;5011469;28;20207;-73
2022/08/14 10:49:17;;;;;;;10.85;8.60;;;29.50;99.90;;;;;;5010310;28;20207;-74
2022/08/14 10:52:00;;;;;;;11.00;8.70;;;29.60;99.90;;;;;;5010101;28;20210;-73
2022/08/14 10:54:37;;;;;;;11.82;8.70;;;29.70;99.90;;;;;;5012017;28;20211;-72
2022/08/14 10:57:19;;;;;;;9.90;8.90;;;29.80;99.90;;;;;;5003562;28;20590;-72
2022/08/14 10:59:49;;;;;;;9.82;8.90;;;29.80;99.90;;;;;;5009142;28;20211;-72
2022/08/14 11:02:28;;;;;;;10.32;9.18;;;29.80;99.90;;;;;;5011669;28;20257;-73
2022/08/14 11:05:02;;;;;;;11.43;9.85;;;30.00;99.90;;;;;;5012134;28;20256;-73
2022/08/14 11:07:30;;;;;;;11.98;10.80;;;30.10;99.90;;;;;;5011116;28;20647;-73
2022/08/14 11:10:00;;;;;;;12.18;9.32;;;30.30;99.90;;;;;;5011079;28;20211;-73
2022/08/14 11:12:39;;;;;;;10.13;9.07;;;30.50;99.90;;;;;;5011280;28;20206;-72
2022/08/14 11:15:07;;;;;;;11.88;9.50;;;30.80;99.90;;;;;;5008859;28;20198;-72
2022/08/14 11:17:35;;;;;;;9.98;9.02;;;31.00;99.90;;;;;;5010920;28;20215;-71
2022/08/14 11:20:04;;;;;;;12.20;9.15;;;31.20;99.90;;;;;;5012328;28;20238;-73
2022/08/14 11:22:32;;;;;;;10.20;9.13;;;31.40;99.90;;;;;;5009887;28;20767;-73
2022/08/14 11:25:04;;;;;;;10.30;9.10;;;31.40;99.90;;;;;;5011014;28;20207;-73
2022/08/14 11:27:32;;;;;;;10.65;9.13;;;31.50;99.90;;;;;;5009689;28;20254;-73
2022/08/14 11:30:03;;;;;;;11.68;9.60;;;31.60;99.90;;;;;;5009439;28;20211;-72
2022/08/14 11:32:30;;;;;;;10.00;9.02;;;31.80;99.90;;;;;;5011395;28;20203;-73
2022/08/14 11:34:57;;;;;;;11.25;8.50;;;31.90;99.90;;;;;;4997563;28;20257;-73
2022/08/14 11:37:24;;;;;;;9.60;8.70;;;31.90;99.80;;;;;;5011386;28;20218;-73
2022/08/14 11:39:51;;;;;;;12.35;9.75;;;31.70;99.70;;;;;;5009514;28;20222;-72
2022/08/14 11:42:24;;;;;;;14.25;10.48;;;31.40;99.70;;;;;;5011177;28;20223;-73
2022/08/14 11:44:52;;;;;;;9.55;8.70;;;31.30;99.90;;;;;;5011123;28;20535;-73
2022/08/14 11:47:19;;;;;;;10.95;9.60;;;31.20;99.90;;;;;;5011505;28;20293;-73
2022/08/14 11:49:47;;;;;;;13.00;9.52;;;31.10;99.90;;;;;;5010981;28;20302;-72
2022/08/14 11:52:14;;;;;;;10.77;9.45;;;31.10;99.90;;;;;;5008434;28;20363;-72
2022/08/14 11:54:41;;;;;;;10.43;8.98;;;31.10;99.90;;;;;;5010574;28;20207;-72
2022/08/14 11:57:14;;;;;;;10.65;9.65;;;31.20;99.80;;;;;;5008348;28;20622;-72
2022/08/14 11:59:42;;;;;;;15.60;9.57;;;31.10;99.80;;;;;;5010362;28;20231;-72
2022/08/14 12:02:11;;;;;;;11.02;8.93;;;31.00;99.90;;;;;;5011053;28;20231;-74
2022/08/14 12:04:48;;;;;;;10.75;9.68;;;31.00;99.90;;;;;;5010349;28;20722;-72
2022/08/14 12:07:15;;;;;;;12.05;9.70;;;31.10;99.90;;;;;;5009484;28;20234;-73
2022/08/14 12:09:43;;;;;;;10.73;9.07;;;31.20;99.90;;;;;;5010935;28;20214;-73
2022/08/14 12:12:14;;;;;;;11.50;9.55;;;31.30;99.90;;;;;;5010547;28;20289;-72
2022/08/14 12:14:52;;;;;;;10.88;9.88;;;31.40;99.70;;;;;;5002537;28;20214;-74
2022/08/14 12:17:19;;;;;;;12.13;10.25;;;31.20;99.50;;;;;;5010031;28;20261;-72
2022/08/14 12:19:48;;;;;;;15.65;10.95;;;30.90;99.90;;;;;;5013430;28;20728;-73
2022/08/14 12:22:15;;;;;;;11.45;10.02;;;30.70;99.90;;;;;;5014441;28;20222;-73
2022/08/14 12:24:43;;;;;;;11.30;10.18;;;30.40;99.90;;;;;;5011609;28;20215;-72
2022/08/14 12:27:11;;;;;;;12.27;10.50;;;30.20;99.90;;;;;;5012934;28;20607;-72
2022/08/14 12:29:41;;;;;;;15.20;9.30;;;30.00;99.90;;;;;;5013958;28;20581;-73
2022/08/14 12:32:09;;;;;;;11.15;9.30;;;29.80;99.90;;;;;;5013503;28;20214;-73
2022/08/14 12:34:36;;;;;;;12.55;10.10;;;29.70;99.90;;;;;;5014518;28;20269;-72
2022/08/14 12:37:08;;;;;;;12.75;10.35;;;29.60;99.90;;;;;;5015015;28;20538;-73
2022/08/14 12:39:36;;;;;;;12.73;10.00;;;29.30;99.90;;;;;;5014444;28;20215;-72
2022/08/14 12:42:06;;;;;;;10.82;9.82;;;29.20;99.90;;;;;;5014467;28;20698;-73
2022/08/14 12:44:34;;;;;;;10.90;9.82;;;29.20;99.90;;;;;;5013648;28;20216;-72
2022/08/14 12:47:13;;;;;;;10.48;9.45;;;29.20;99.90;;;;;;5013478;28;20204;-73
2022/08/14 12:49:52;;;;;;;12.43;10.35;;;29.20;99.90;;;;;;5013951;28;20238;-73
2022/08/14 12:52:28;;;;;;;10.52;9.40;;;29.10;99.90;;;;;;5013649;28;20202;-73
2022/08/14 12:54:58;;;;;;;10.38;9.38;;;29.00;99.90;;;;;;5013160;28;20219;-73
2022/08/14 12:57:38;;;;;;;13.35;9.40;;;29.00;99.90;;;;;;5013964;28;20270;-73
2022/08/14 13:00:11;;;;;;;10.60;9.23;;;29.00;99.90;;;;;;5012712;28;20585;-72
2022/08/14 13:02:41;;;;;;;11.35;9.15;;;29.10;99.90;;;;;;5013245;28;20700;-73
2022/08/14 13:05:09;;;;;;;10.18;8.82;;;29.20;99.90;;;;;;5013457;28;20270;-72
2022/08/14 13:07:39;;;;;;;12.02;9.30;;;29.40;99.90;;;;;;5013869;28;20238;-73
2022/08/14 13:10:08;;;;;;;10.10;9.10;;;29.60;99.90;;;;;;5013459;28;20219;-73